Time;durP1;ratioP1;P1;durP2;ratioP2;P2;SDS_P1;SDS_P2;PMS_P1;PMS_P2;Temp;Humidity;BMP_temperature;BMP_pressure;BME280_temperature;BME280_humidity;BME280_pressure;Samples;Min_cycle;Max_cycle;Signal;HPM_P1;HPM_P2
2023/05/09 00:01:12;;;;;;;54.25;26.25;;;;;;;-146.27;100.00;82677.47;5040439;28;20033;-71
2023/05/09 00:03:38;;;;;;;46.45;27.15;;;;;;;-146.27;100.00;82687.53;5051702;28;20032;-71
2023/05/09 00:06:04;;;;;;;45.47;25.92;;;;;;;-146.27;100.00;82719.66;5057364;28;20037;-71
2023/05/09 00:08:29;;;;;;;47.13;26.65;;;;;;;-146.27;100.00;82721.69;5048469;28;20663;-71
2023/05/09 00:10:55;;;;;;;44.40;23.70;;;;;;;-146.27;100.00;82701.59;5054905;28;20037;-70
2023/05/09 00:13:20;;;;;;;45.22;25.73;;;;;;;-146.27;100.00;82725.69;5055314;28;20027;-71
2023/05/09 00:15:45;;;;;;;44.53;23.55;;;;;;;-146.27;100.00;82759.84;5051340;28;20672;-71
2023/05/09 00:18:13;;;;;;;45.58;25.60;;;;;;;-146.27;100.00;82681.50;5048785;28;20520;-71
2023/05/09 00:20:39;;;;;;;47.72;22.55;;;;;;;-146.27;100.00;82687.53;5038650;28;20079;-71
2023/05/09 00:23:05;;;;;;;40.15;22.63;;;;;;;-146.27;100.00;82705.59;5030858;28;20032;-71
2023/05/09 00:25:31;;;;;;;37.80;21.83;;;;;;;-146.27;100.00;82757.84;5035092;28;20403;-72
2023/05/09 00:27:57;;;;;;;42.85;21.42;;;;;;;-146.27;100.00;82709.63;5032751;28;20022;-71
2023/05/09 00:30:22;;;;;;;39.50;20.73;;;;;;;-146.27;100.00;82689.53;5034839;28;20557;-71
2023/05/09 00:32:48;;;;;;;41.63;21.27;;;;;;;-146.27;100.00;82709.63;5043286;28;20056;-71
2023/05/09 00:35:13;;;;;;;35.42;20.23;;;;;;;-146.27;100.00;82685.50;5050064;28;20100;-71
2023/05/09 00:37:38;;;;;;;36.72;20.30;;;;;;;-146.27;100.00;82695.56;5049827;28;20074;-71
2023/05/09 00:40:06;;;;;;;35.95;20.48;;;;;;;-146.27;100.00;82665.44;5050263;28;20048;-72
2023/05/09 00:42:31;;;;;;;37.13;20.38;;;;;;;-146.27;100.00;82709.63;5049763;28;20039;-71
2023/05/09 00:44:57;;;;;;;36.92;19.58;;;;;;;-146.27;100.00;82711.63;5046360;28;20404;-70
2023/05/09 00:47:23;;;;;;;39.50;20.02;;;;;;;-146.27;100.00;82721.69;5050257;28;20067;-71
2023/05/09 00:49:49;;;;;;;32.22;18.60;;;;;;;-146.27;100.00;82669.44;5049573;28;20112;-71
2023/05/09 00:52:15;;;;;;;34.47;18.83;;;;;;;-146.27;100.00;82713.66;5050489;28;20394;-71
2023/05/09 00:54:40;;;;;;;33.92;19.13;;;;;;;-146.27;100.00;82671.47;5037363;28;20025;-72
2023/05/09 00:57:06;;;;;;;33.17;19.63;;;;;;;-146.27;100.00;82717.66;5044013;28;20036;-71
2023/05/09 00:59:31;;;;;;;30.58;17.63;;;;;;;-146.27;100.00;82701.59;5059452;28;20017;-71
2023/05/09 01:01:56;;;;;;;32.15;18.13;;;;;;;-146.27;100.00;82687.53;5059291;28;20033;-70
2023/05/09 01:04:22;;;;;;;34.97;17.67;;;;;;;-146.27;100.00;82665.44;5038962;28;20388;-71
2023/05/09 01:06:58;;;;;;;29.05;17.85;;;;;;;-146.27;100.00;82711.63;5049872;28;20032;-71
2023/05/09 01:09:37;;;;;;;29.60;17.17;;;;;;;-146.27;100.00;82705.59;5048601;28;20055;-72
2023/05/09 01:12:09;;;;;;;34.63;17.27;;;;;;;-146.27;100.00;82737.75;5054816;28;20029;-72
2023/05/09 01:15:04;;;;;;;25.83;16.63;;;;;;;-146.27;100.00;82729.72;5049710;28;20031;-71
2023/05/09 01:17:54;;;;;;;31.85;17.63;;;;;;;-146.27;100.00;82729.72;5050265;28;20021;-70
2023/05/09 01:20:44;;;;;;;33.30;17.02;;;;;;;-146.27;100.00;82713.66;5050140;28;20029;-72
2023/05/09 01:23:09;;;;;;;30.05;16.08;;;;;;;-146.27;100.00;82719.66;5050192;28;20056;-71
2023/05/09 01:25:53;;;;;;;30.90;17.08;;;;;;;-146.27;100.00;82759.84;5030975;28;20462;-71
2023/05/09 01:28:34;;;;;;;28.98;16.45;;;;;;;-146.27;100.00;82719.66;5047079;28;20025;-71
2023/05/09 01:31:00;;;;;;;30.30;16.58;;;;;;;-146.27;100.00;82717.66;5032322;28;20500;-71
2023/05/09 01:33:26;;;;;;;29.15;16.25;;;;;;;-146.27;100.00;82733.72;5047508;28;20025;-71
2023/05/09 01:36:00;;;;;;;27.85;15.93;;;;;;;-146.27;100.00;82721.69;5039923;28;20068;-71
2023/05/09 01:38:30;;;;;;;30.20;15.32;;;;;;;-146.27;100.00;82709.63;5037684;28;20029;-71
2023/05/09 01:40:58;;;;;;;27.10;14.57;;;;;;;-146.27;100.00;82755.84;5034695;28;20108;-72
2023/05/09 01:43:26;;;;;;;30.23;15.40;;;;;;;-146.27;100.00;82749.81;5048623;28;20083;-72
2023/05/09 01:45:52;;;;;;;27.23;14.70;;;;;;;-146.27;100.00;82743.78;5049744;28;20388;-71
2023/05/09 01:48:19;;;;;;;24.00;14.93;;;;;;;-146.27;100.00;82721.69;5049401;28;20863;-72
2023/05/09 01:50:46;;;;;;;28.92;15.63;;;;;;;-146.27;100.00;82705.59;5050127;28;20058;-71
2023/05/09 01:53:12;;;;;;;27.02;14.80;;;;;;;-146.27;100.00;82741.78;5041301;28;20393;-71
2023/05/09 01:55:40;;;;;;;25.67;15.27;;;;;;;-146.27;100.00;82741.78;5030522;28;20032;-69
2023/05/09 01:58:06;;;;;;;28.20;15.18;;;;;;;-146.27;100.00;82757.84;5033421;28;20037;-70
2023/05/09 02:00:35;;;;;;;28.63;15.35;;;;;;;-146.27;100.00;82749.81;5032962;28;20025;-70
2023/05/09 02:03:02;;;;;;;31.25;15.13;;;;;;;-146.27;100.00;82729.72;5043643;28;20059;-71
2023/05/09 02:05:29;;;;;;;24.45;14.02;;;;;;;-146.27;100.00;82749.81;5033827;28;20480;-71
2023/05/09 02:07:58;;;;;;;23.17;14.05;;;;;;;-146.27;100.00;82709.63;5047347;28;20029;-69
2023/05/09 02:10:26;;;;;;;24.75;14.85;;;;;;;-146.27;100.00;82739.75;5029988;28;20049;-69
2023/05/09 02:12:52;;;;;;;33.15;14.73;;;;;;;-146.27;100.00;82717.66;5047443;28;20048;-69
2023/05/09 02:15:17;;;;;;;26.30;14.02;;;;;;;-146.27;100.00;82717.66;5035377;28;20030;-71
2023/05/09 02:17:42;;;;;;;25.02;13.82;;;;;;;-146.27;100.00;82761.84;5046377;28;20040;-70
2023/05/09 02:20:09;;;;;;;24.63;13.63;;;;;;;-146.27;100.00;82701.59;5042769;28;20155;-71
2023/05/09 02:22:35;;;;;;;23.65;14.05;;;;;;;-146.27;100.00;82745.78;5047619;28;20414;-71
2023/05/09 02:25:03;;;;;;;24.63;12.65;;;;;;;-146.27;100.00;82751.81;5049671;28;20025;-70
2023/05/09 02:27:31;;;;;;;23.02;12.77;;;;;;;-146.27;100.00;82745.78;5047391;28;20037;-70
2023/05/09 02:30:00;;;;;;;25.33;13.25;;;;;;;-146.27;100.00;82713.66;5038522;28;20059;-71
2023/05/09 02:32:29;;;;;;;25.17;12.65;;;;;;;-146.27;100.00;82749.81;5048923;28;20029;-70
2023/05/09 02:34:56;;;;;;;23.02;12.55;;;;;;;-146.27;100.00;82729.72;5042781;28;20029;-70
2023/05/09 02:37:23;;;;;;;22.27;12.45;;;;;;;-146.27;100.00;82757.84;5037848;28;20529;-70
2023/05/09 02:39:48;;;;;;;21.80;11.68;;;;;;;-146.27;100.00;82745.78;5048698;28;20033;-70
2023/05/09 02:42:21;;;;;;;23.50;12.15;;;;;;;-146.27;100.00;82747.78;5048469;28;20036;-69
2023/05/09 02:44:47;;;;;;;22.70;11.20;;;;;;;-146.27;100.00;82749.81;5048209;28;20071;-70
2023/05/09 02:47:12;;;;;;;23.40;11.68;;;;;;;-146.27;100.00;82745.78;5050399;28;20037;-71
2023/05/09 02:49:37;;;;;;;19.42;11.80;;;;;;;-146.27;100.00;82741.78;5050162;28;20388;-71
2023/05/09 02:52:03;;;;;;;21.13;11.55;;;;;;;-146.27;100.00;82713.66;5065601;28;20029;-69
2023/05/09 02:54:28;;;;;;;20.65;11.80;;;;;;;-146.27;100.00;82733.72;5062745;28;20044;-70
2023/05/09 02:56:54;;;;;;;29.08;12.57;;;;;;;-146.27;100.00;82761.84;5046893;28;20030;-69
2023/05/09 02:59:20;;;;;;;22.30;11.75;;;;;;;-146.27;100.00;82757.84;5031833;28;20446;-71
2023/05/09 03:01:45;;;;;;;18.98;10.68;;;;;;;-146.27;100.00;82787.97;5046459;28;20075;-70
2023/05/09 03:04:10;;;;;;;22.88;11.93;;;;;;;-146.27;100.00;82759.84;5040385;28;20029;-69
2023/05/09 03:06:36;;;;;;;25.60;11.23;;;;;;;-146.27;100.00;82663.41;5047297;28;20029;-68
2023/05/09 03:09:02;;;;;;;20.90;12.55;;;;;;;-146.27;100.00;82757.84;5036591;28;20128;-68
2023/05/09 03:11:28;;;;;;;21.23;12.55;;;;;;;-146.27;100.00;82757.84;5036116;28;20090;-70
2023/05/09 03:13:53;;;;;;;18.05;10.95;;;;;;;-146.27;100.00;82781.94;5054720;28;20032;-70
2023/05/09 03:16:19;;;;;;;22.65;12.10;;;;;;;-146.27;100.00;82796.00;5051390;28;20081;-70
2023/05/09 03:18:44;;;;;;;26.35;12.75;;;;;;;-146.27;100.00;82781.94;5039039;28;20025;-71
2023/05/09 03:21:09;;;;;;;25.35;12.27;;;;;;;-146.27;100.00;82810.06;5032762;28;20029;-69
2023/05/09 03:23:35;;;;;;;25.13;11.82;;;;;;;-146.27;100.00;82729.72;5049399;28;20143;-70
2023/05/09 03:26:00;;;;;;;24.25;12.07;;;;;;;-146.27;100.00;82781.94;5051533;28;20159;-70
2023/05/09 03:28:27;;;;;;;20.23;12.60;;;;;;;-146.27;100.00;82810.06;5038621;28;20507;-70
2023/05/09 03:30:52;;;;;;;19.08;12.00;;;;;;;-146.27;100.00;82822.13;5038502;28;20106;-70
2023/05/09 03:33:18;;;;;;;24.92;12.20;;;;;;;-146.27;100.00;82796.00;5051445;28;20052;-70
2023/05/09 03:35:43;;;;;;;24.65;12.40;;;;;;;-146.27;100.00;82763.88;5052245;28;20396;-69
2023/05/09 03:38:08;;;;;;;17.75;11.27;;;;;;;-146.27;100.00;82785.97;5049480;28;20036;-69
2023/05/09 03:40:34;;;;;;;22.70;12.70;;;;;;;-146.27;100.00;82781.94;5050875;28;20380;-69
2023/05/09 03:42:59;;;;;;;22.33;12.05;;;;;;;-146.27;100.00;82840.22;5048234;28;20489;-69
2023/05/09 03:45:25;;;;;;;23.65;12.90;;;;;;;-146.27;100.00;82789.97;5031919;28;20044;-69
2023/05/09 03:47:50;;;;;;;25.58;13.07;;;;;;;-146.27;100.00;82785.97;5048826;28;20374;-69
2023/05/09 03:50:15;;;;;;;24.05;12.15;;;;;;;-146.27;100.00;82822.13;5050335;28;20056;-71
2023/05/09 03:52:41;;;;;;;29.10;12.68;;;;;;;-146.27;100.00;82850.25;5055930;28;20024;-69
2023/05/09 03:55:06;;;;;;;26.38;13.82;;;;;;;-146.27;100.00;82840.22;5038039;28;20032;-68
2023/05/09 03:57:34;;;;;;;24.75;12.93;;;;;;;-146.27;100.00;82836.19;5031215;28;20056;-71
2023/05/09 04:00:00;;;;;;;29.98;14.20;;;;;;;-146.27;100.00;82810.06;5044157;28;20061;-70
2023/05/09 04:02:25;;;;;;;24.55;13.38;;;;;;;-146.27;100.00;82771.91;5049402;28;20442;-70
2023/05/09 04:04:51;;;;;;;23.67;13.43;;;;;;;-146.27;100.00;82830.16;5050067;28;20512;-72
2023/05/09 04:07:18;;;;;;;25.85;12.43;;;;;;;-146.27;100.00;82816.09;5049927;28;20043;-71
2023/05/09 04:09:43;;;;;;;25.30;12.27;;;;;;;-146.27;100.00;82789.97;5051433;28;20069;-72
2023/05/09 04:12:08;;;;;;;22.98;12.13;;;;;;;-146.27;100.00;82806.06;5055030;28;20067;-72
2023/05/09 04:14:34;;;;;;;22.25;11.50;;;;;;;-146.27;100.00;82802.03;5050681;28;20079;-71
2023/05/09 04:16:59;;;;;;;27.60;13.05;;;;;;;-146.27;100.00;82812.09;5049026;28;20033;-71
2023/05/09 04:19:25;;;;;;;23.33;11.98;;;;;;;-146.27;100.00;82800.03;5032710;28;20025;-72
2023/05/09 04:21:50;;;;;;;28.90;13.43;;;;;;;-146.27;100.00;82798.03;5035236;28;20045;-71
2023/05/09 04:24:15;;;;;;;19.58;11.85;;;;;;;-146.27;100.00;82810.06;5050679;28;20033;-70
2023/05/09 04:26:41;;;;;;;24.73;12.90;;;;;;;-146.27;100.00;82798.03;5051133;28;20031;-71
2023/05/09 04:29:06;;;;;;;21.60;12.32;;;;;;;-146.27;100.00;82777.94;5045862;28;20059;-71
2023/05/09 04:31:32;;;;;;;27.92;12.88;;;;;;;-146.27;100.00;82777.94;5050558;28;20017;-71
2023/05/09 04:33:57;;;;;;;24.70;12.82;;;;;;;-146.27;100.00;82789.97;5050500;28;20384;-71
2023/05/09 04:36:23;;;;;;;22.98;12.77;;;;;;;-146.27;100.00;82725.69;5051128;28;20036;-70
2023/05/09 04:38:48;;;;;;;23.08;13.15;;;;;;;-146.27;100.00;82789.97;5049879;28;20078;-71
2023/05/09 04:41:14;;;;;;;21.05;13.45;;;;;;;-146.27;100.00;82757.84;5062125;28;20857;-71
2023/05/09 04:43:39;;;;;;;23.83;13.25;;;;;;;-146.27;100.00;82757.84;5054306;28;20040;-71
2023/05/09 04:46:05;;;;;;;27.67;15.40;;;;;;;-146.27;100.00;82822.13;5035342;28;20025;-70
2023/05/09 04:48:30;;;;;;;24.48;14.55;;;;;;;-146.27;100.00;82769.91;5045040;28;20493;-70
2023/05/09 04:50:55;;;;;;;28.80;15.05;;;;;;;-146.27;100.00;82806.06;5049557;28;20037;-71
2023/05/09 04:53:20;;;;;;;25.90;15.27;;;;;;;-146.27;100.00;82830.16;5048813;28;20029;-71
2023/05/09 04:55:46;;;;;;;29.50;14.82;;;;;;;-146.27;100.00;82846.25;5052149;28;20376;-70
2023/05/09 04:58:11;;;;;;;28.48;15.32;;;;;;;-146.27;100.00;82787.97;5045224;28;20048;-71
2023/05/09 05:00:36;;;;;;;28.67;15.23;;;;;;;-146.27;100.00;82826.16;5048656;28;20028;-70
2023/05/09 05:03:02;;;;;;;26.60;14.25;;;;;;;-146.27;100.00;82818.13;5038552;28;20032;-70
2023/05/09 05:05:27;;;;;;;30.65;14.85;;;;;;;-146.27;100.00;82836.19;5048372;28;20114;-72
2023/05/09 05:07:53;;;;;;;23.63;13.77;;;;;;;-146.27;100.00;82852.25;5042945;28;20044;-72
2023/05/09 05:10:18;;;;;;;23.10;13.13;;;;;;;-146.27;100.00;82810.06;5048655;28;20044;-73
2023/05/09 05:12:44;;;;;;;23.40;13.52;;;;;;;-146.27;100.00;82824.13;5056458;28;20025;-74
2023/05/09 05:15:10;;;;;;;27.33;14.15;;;;;;;-146.27;100.00;82800.03;5048626;28;20039;-73
2023/05/09 05:17:36;;;;;;;26.23;13.93;;;;;;;-146.27;100.00;82769.91;5039258;28;20484;-73
2023/05/09 05:20:05;;;;;;;23.63;13.00;;;;;;;-146.27;100.00;82828.16;5035674;28;20032;-69
2023/05/09 05:22:30;;;;;;;26.10;13.30;;;;;;;-146.27;100.00;82826.16;5039010;28;20027;-70
2023/05/09 05:24:55;;;;;;;27.45;13.23;;;;;;;-146.27;100.00;82818.13;5031559;28;20041;-74
2023/05/09 05:27:21;;;;;;;23.70;12.25;;;;;;;-146.27;100.00;82804.06;5062875;28;20047;-74
2023/05/09 05:29:46;;;;;;;22.45;12.95;;;;;;;-146.27;100.00;82814.09;5049979;28;20503;-74
2023/05/09 05:32:11;;;;;;;21.23;11.52;;;;;;;-146.27;100.00;82808.06;5050060;28;20056;-73
2023/05/09 05:34:38;;;;;;;24.88;12.65;;;;;;;-146.27;100.00;82818.13;5054007;28;20529;-74
2023/05/09 05:37:03;;;;;;;23.23;13.25;;;;;;;-146.27;100.00;82838.19;5035533;28;20040;-74
2023/05/09 05:39:29;;;;;;;23.92;12.20;;;;;;;-146.27;100.00;82842.22;5033840;28;20102;-74
2023/05/09 05:41:54;;;;;;;26.80;13.63;;;;;;;-146.27;100.00;82886.41;5030138;28;20108;-73
2023/05/09 05:44:19;;;;;;;28.27;12.93;;;;;;;-146.27;100.00;82848.25;5034066;28;20083;-74
2023/05/09 05:46:45;;;;;;;24.10;11.95;;;;;;;-146.27;100.00;82814.09;5037553;28;20512;-75
2023/05/09 05:49:10;;;;;;;21.08;12.43;;;;;;;-146.27;100.00;82808.06;5058241;28;20111;-74
2023/05/09 05:51:36;;;;;;;23.15;12.70;;;;;;;-146.27;100.00;82838.19;5054903;28;20051;-74
2023/05/09 05:54:01;;;;;;;22.15;13.55;;;;;;;-146.27;100.00;82882.41;5060367;28;20082;-74
2023/05/09 05:56:26;;;;;;;22.58;13.52;;;;;;;-146.27;100.00;82886.41;5049374;28;20033;-74
2023/05/09 05:58:52;;;;;;;22.88;13.32;;;;;;;-146.27;100.00;82888.44;5053306;28;20132;-74
2023/05/09 06:01:18;;;;;;;23.67;13.82;;;;;;;-146.27;100.00;82902.50;5050699;28;20025;-74
2023/05/09 06:03:43;;;;;;;24.80;13.18;;;;;;;-146.27;100.00;82902.50;5058561;28;20031;-74
2023/05/09 06:06:09;;;;;;;24.25;13.45;;;;;;;-146.27;100.00;82878.38;5062953;28;20108;-73
2023/05/09 06:08:34;;;;;;;21.90;13.20;;;;;;;-146.27;100.00;82906.50;5052506;28;20116;-74
2023/05/09 06:11:00;;;;;;;27.73;13.93;;;;;;;-146.27;100.00;82898.47;5049579;28;20039;-73
2023/05/09 06:13:25;;;;;;;24.60;13.27;;;;;;;-146.27;100.00;82872.34;5043358;28;20029;-74
2023/05/09 06:15:54;;;;;;;23.38;13.10;;;;;;;-146.27;100.00;82882.41;5031770;28;20127;-74
2023/05/09 06:18:19;;;;;;;24.10;13.48;;;;;;;-146.27;100.00;82926.59;5038056;28;20040;-73
2023/05/09 06:20:45;;;;;;;25.42;12.35;;;;;;;-146.27;100.00;82926.59;5044149;28;20031;-73
2023/05/09 06:23:10;;;;;;;21.77;12.10;;;;;;;-146.27;100.00;82894.47;5049822;28;20108;-70
2023/05/09 06:25:36;;;;;;;21.15;12.60;;;;;;;-146.27;100.00;82938.66;5059373;28;20065;-70
2023/05/09 06:28:01;;;;;;;23.20;12.05;;;;;;;-146.27;100.00;82910.53;5046837;28;20033;-69
2023/05/09 06:30:26;;;;;;;23.30;12.45;;;;;;;-146.27;100.00;82926.59;5042951;28;20090;-70
2023/05/09 06:32:52;;;;;;;20.90;11.95;;;;;;;-146.27;100.00;82882.41;5046331;28;20497;-70
2023/05/09 06:35:18;;;;;;;25.85;11.45;;;;;;;-146.27;100.00;82932.63;5033561;28;20100;-70
2023/05/09 06:37:43;;;;;;;18.40;10.50;;;;;;;-146.27;100.00;82918.56;5037096;28;20029;-69
2023/05/09 06:40:09;;;;;;;18.52;10.98;;;;;;;-146.27;100.00;82906.50;5040056;28;20485;-69
2023/05/09 06:42:34;;;;;;;22.02;10.15;;;;;;;-146.27;100.00;82942.66;5051260;28;20602;-68
2023/05/09 06:44:59;;;;;;;18.00;9.30;;;;;;;-146.27;100.00;82948.69;5053477;28;20049;-68
2023/05/09 06:47:25;;;;;;;17.17;10.57;;;;;;;-146.27;100.00;82974.81;5034854;28;20036;-68
2023/05/09 06:49:50;;;;;;;19.83;10.50;;;;;;;-146.27;100.00;82934.63;5032193;28;20017;-68
2023/05/09 06:52:15;;;;;;;20.40;10.07;;;;;;;-146.27;100.00;82932.63;5036882;28;20036;-68
2023/05/09 06:54:41;;;;;;;17.42;9.98;;;;;;;-146.27;100.00;82974.81;5042650;28;20028;-68
2023/05/09 06:57:06;;;;;;;17.63;9.43;;;;;;;-146.27;100.00;82964.78;5049724;28;20029;-68
2023/05/09 06:59:32;;;;;;;15.85;9.20;;;;;;;-146.27;100.00;82950.72;5035384;28;20048;-69
2023/05/09 07:01:57;;;;;;;20.45;10.13;;;;;;;-146.27;100.00;82958.75;5050526;28;20037;-68
2023/05/09 07:04:23;;;;;;;13.20;8.90;;;;;;;-146.27;100.00;82942.66;5042481;28;20029;-69
2023/05/09 07:06:48;;;;;;;19.38;9.35;;;;;;;-146.27;100.00;82982.84;5042968;28;20036;-68
2023/05/09 07:09:16;;;;;;;14.13;9.90;;;;;;;-146.27;100.00;82982.84;5035845;28;20053;-67
2023/05/09 07:11:42;;;;;;;16.50;8.93;;;;;;;-146.27;100.00;82984.88;5052549;28;20025;-68
2023/05/09 07:14:07;;;;;;;17.10;9.77;;;;;;;-146.27;100.00;83015.00;5046170;28;20055;-68
2023/05/09 07:16:32;;;;;;;14.85;8.80;;;;;;;-146.27;100.00;82990.88;5040490;28;20036;-67
2023/05/09 07:18:58;;;;;;;14.40;7.85;;;;;;;-146.27;100.00;83019.03;5035900;28;20031;-67
2023/05/09 07:21:23;;;;;;;13.48;6.35;;;;;;;-146.27;100.00;83019.03;5032833;28;20092;-67
2023/05/09 07:23:48;;;;;;;13.60;6.82;;;;;;;-146.27;100.00;82998.94;5032249;28;20075;-68
2023/05/09 07:26:14;;;;;;;9.95;6.03;;;;;;;-146.27;100.00;82994.91;5037506;28;20037;-67
2023/05/09 07:28:39;;;;;;;9.90;6.22;;;;;;;-146.27;100.00;83039.09;5043501;28;20132;-67
2023/05/09 07:31:05;;;;;;;10.00;5.85;;;;;;;-146.27;100.00;83047.16;5038775;28;20108;-67
2023/05/09 07:33:30;;;;;;;13.43;7.15;;;;;;;-146.27;100.00;82986.88;5051996;28;20051;-67
2023/05/09 07:35:58;;;;;;;18.90;6.68;;;;;;;-146.27;100.00;83004.94;5050868;28;20115;-66
2023/05/09 07:38:23;;;;;;;13.32;7.78;;;;;;;-146.27;100.00;82994.91;5045888;28;20029;-66
2023/05/09 07:40:48;;;;;;;11.70;6.88;;;;;;;-146.27;100.00;83000.94;5052089;28;20361;-67
2023/05/09 07:43:14;;;;;;;11.00;7.00;;;;;;;-146.27;100.00;83015.00;5043032;28;20025;-67
2023/05/09 07:45:39;;;;;;;17.92;9.02;;;;;;;-146.27;100.00;83019.03;5032418;28;20392;-67
2023/05/09 07:48:05;;;;;;;14.35;8.80;;;;;;;-146.27;100.00;82954.72;5045472;28;20032;-66
2023/05/09 07:50:30;;;;;;;15.10;8.93;;;;;;;-146.27;100.00;82980.84;5044747;28;20051;-68
2023/05/09 07:52:56;;;;;;;17.65;9.30;;;;;;;-146.27;100.00;82950.72;5032315;28;20027;-68
2023/05/09 07:55:21;;;;;;;17.33;9.73;;;;;;;-146.27;100.00;82974.81;5032020;28;20040;-66
2023/05/09 07:57:46;;;;;;;17.58;10.25;;;;;;;-146.27;100.00;82958.75;5031850;28;20048;-68
2023/05/09 08:00:13;;;;;;;17.65;10.43;;;;;;;-146.27;100.00;82942.66;5031297;28;20417;-69
2023/05/09 08:02:39;;;;;;;20.98;11.70;;;;;;;-146.27;100.00;82978.84;5035079;28;20079;-67
2023/05/09 08:05:05;;;;;;;24.10;11.85;;;;;;;-146.27;100.00;82954.72;5051676;28;20021;-67
2023/05/09 08:07:30;;;;;;;17.17;11.95;;;;;;;-146.27;100.00;82940.66;5051740;28;20029;-66
2023/05/09 08:09:55;;;;;;;16.70;11.57;;;;;;;-146.27;100.00;82954.72;5051374;28;20056;-67
2023/05/09 08:12:21;;;;;;;19.92;12.23;;;;;;;-146.27;100.00;82934.63;5050290;28;20028;-68
2023/05/09 08:14:46;;;;;;;22.60;12.05;;;;;;;-146.27;100.00;82974.81;5051637;28;20102;-65
2023/05/09 08:17:11;;;;;;;20.65;12.43;;;;;;;-146.27;100.00;82968.78;5051564;28;20051;-68
2023/05/09 08:19:37;;;;;;;19.73;11.23;;;;;;;-146.27;100.00;82932.63;5049308;28;20108;-68
2023/05/09 08:22:02;;;;;;;16.90;10.60;;;;;;;-146.27;100.00;82902.50;5031452;28;20108;-68
2023/05/09 08:24:28;;;;;;;20.67;11.93;;;;;;;-146.27;100.00;82934.63;5031264;28;20021;-66
2023/05/09 08:26:53;;;;;;;17.58;11.77;;;;;;;-146.27;100.00;82934.63;5031336;28;20052;-67
2023/05/09 08:29:19;;;;;;;22.60;12.98;;;;;;;-146.27;100.00;82938.66;5031438;28;20037;-68
2023/05/09 08:31:44;;;;;;;18.00;12.20;;;;;;;-146.27;100.00;82908.50;5062564;28;20075;-67
2023/05/09 08:34:09;;;;;;;17.77;12.23;;;;;;;-146.27;100.00;82914.53;5039663;28;20041;-68
2023/05/09 08:36:35;;;;;;;20.83;12.15;;;;;;;-146.27;100.00;82910.53;5051338;28;20480;-68
2023/05/09 08:39:00;;;;;;;19.60;10.68;;;;;;;-146.27;100.00;82902.50;5051396;28;20037;-67
2023/05/09 08:41:26;;;;;;;17.30;10.82;;;;;;;-146.27;100.00;82918.56;5039933;28;20429;-67
2023/05/09 08:43:53;;;;;;;13.27;9.82;;;;;;;-146.27;100.00;82952.72;5037045;28;20031;-67
2023/05/09 08:46:26;;;;;;;19.13;10.25;;;;;;;-146.27;100.00;82984.88;5047385;28;20384;-67
2023/05/09 08:48:53;;;;;;;20.05;10.10;;;;;;;-146.27;100.00;82922.59;5075922;28;20060;-70
2023/05/09 08:51:18;;;;;;;12.98;9.68;;;;;;;-146.27;100.00;82918.56;5046839;28;20105;-68
2023/05/09 08:53:44;;;;;;;15.55;10.70;;;;;;;-146.27;100.00;82914.53;5045415;28;20025;-68
2023/05/09 08:56:09;;;;;;;19.90;11.25;;;;;;;-146.27;100.00;82894.47;5050543;28;20501;-68
2023/05/09 08:58:35;;;;;;;16.38;11.80;;;;;;;-146.27;100.00;82922.59;5045858;28;20469;-69
2023/05/09 09:01:03;;;;;;;17.52;12.13;;;;;;;-146.27;100.00;82918.56;5033550;28;20477;-68
2023/05/09 09:03:29;;;;;;;20.27;13.20;;;;;;;-146.27;100.00;82858.28;5030493;28;20037;-68
2023/05/09 09:05:55;;;;;;;19.58;12.35;;;;;;;-146.27;100.00;82878.38;5030778;28;20116;-68
2023/05/09 09:08:21;;;;;;;19.52;12.80;;;;;;;-146.27;100.00;82912.53;5033121;28;20025;-68
2023/05/09 09:10:47;;;;;;;22.63;13.82;;;;;;;-146.27;100.00;82912.53;5050785;28;20492;-68
2023/05/09 09:13:16;;;;;;;18.20;13.52;;;;;;;-146.27;100.00;82898.47;5048308;28;20053;-68
2023/05/09 09:15:44;;;;;;;22.45;12.77;;;;;;;-146.27;100.00;82946.69;5048582;28;20032;-69
2023/05/09 09:18:19;;;;;;;23.58;13.23;;;;;;;-146.27;100.00;82884.41;5030652;28;20033;-69
2023/05/09 09:21:05;;;;;;;21.27;13.80;;;;;;;-146.27;100.00;82886.41;5029957;28;20029;-68
2023/05/09 09:23:32;;;;;;;19.52;13.75;;;;;;;-146.27;100.00;82902.50;5034175;28;20032;-68
2023/05/09 09:26:01;;;;;;;20.88;13.13;;;;;;;-146.27;100.00;82860.31;5032137;28;20041;-68
2023/05/09 09:28:27;;;;;;;19.05;13.23;;;;;;;-146.27;100.00;82874.38;5031490;28;20147;-68
2023/05/09 09:30:52;;;;;;;21.75;14.07;;;;;;;-146.27;100.00;82910.53;5049113;28;20840;-68
2023/05/09 09:33:22;;;;;;;22.13;13.30;;;;;;;-146.27;100.00;82908.50;5048046;28;20025;-68
2023/05/09 09:35:53;;;;;;;19.80;14.18;;;;;;;-146.27;100.00;82928.59;5048475;28;20382;-69
2023/05/09 09:38:19;;;;;;;22.25;13.63;;;;;;;-146.27;100.00;82914.53;5042168;28;20519;-68
2023/05/09 09:40:52;;;;;;;19.65;12.80;;;;;;;-146.27;100.00;82878.38;5048763;28;20499;-68
2023/05/09 09:43:17;;;;;;;24.00;14.57;;;;;;;-146.27;100.00;82874.38;5041450;28;20400;-68
2023/05/09 09:45:47;;;;;;;24.33;14.27;;;;;;;-146.27;100.00;82908.50;5034160;28;20280;-69
2023/05/09 09:48:12;;;;;;;27.58;13.73;;;;;;;-146.27;100.00;82942.66;5029998;28;20037;-69
2023/05/09 09:50:37;;;;;;;19.83;12.90;;;;;;;-146.27;100.00;82914.53;5046251;28;20020;-68
2023/05/09 09:53:03;;;;;;;22.90;15.07;;;;;;;-146.27;100.00;82932.63;5050256;28;20025;-68
2023/05/09 09:55:28;;;;;;;22.35;14.02;;;;;;;-146.27;100.00;82930.63;5050742;28;20377;-68
2023/05/09 09:57:54;;;;;;;23.00;14.07;;;;;;;-146.27;100.00;82886.41;5054521;28;20472;-67
2023/05/09 10:00:30;;;;;;;21.45;14.25;;;;;;;-146.27;100.00;82916.56;5044473;28;20047;-68
2023/05/09 10:02:58;;;;;;;22.25;14.40;;;;;;;-146.27;100.00;82906.50;5043891;28;20061;-69
2023/05/09 10:05:25;;;;;;;18.42;14.45;;;;;;;-146.27;100.00;82882.41;5053531;28;20455;-68
2023/05/09 10:08:01;;;;;;;22.20;14.38;;;;;;;-146.27;100.00;82884.41;5052269;28;20032;-70
2023/05/09 10:10:29;;;;;;;19.50;14.55;;;;;;;-146.27;100.00;82892.44;5053172;28;20060;-69
2023/05/09 10:12:57;;;;;;;18.30;13.77;;;;;;;-146.27;100.00;82908.50;5063656;28;20354;-68
2023/05/09 10:15:24;;;;;;;21.58;14.68;;;;;;;-146.27;100.00;82930.63;5051197;28;20047;-67
2023/05/09 10:17:55;;;;;;;18.08;13.73;;;;;;;-146.27;100.00;82894.47;5053605;28;20024;-67
2023/05/09 10:20:21;;;;;;;16.65;13.65;;;;;;;-146.27;100.00;82956.75;5041455;28;20049;-68
2023/05/09 10:22:47;;;;;;;19.42;14.68;;;;;;;-146.27;100.00;82912.53;5033683;28;20596;-67
2023/05/09 10:25:19;;;;;;;19.15;13.38;;;;;;;-146.27;100.00;82890.44;5044558;28;20033;-67
2023/05/09 10:27:46;;;;;;;25.95;14.93;;;;;;;-146.27;100.00;82910.53;5034782;28;20447;-68
2023/05/09 10:30:26;;;;;;;21.20;14.30;;;;;;;-146.27;100.00;82876.38;5039525;28;20480;-67
2023/05/09 10:32:52;;;;;;;20.25;14.07;;;;;;;-146.27;100.00;82898.47;5044357;28;20418;-67
2023/05/09 10:35:23;;;;;;;20.63;14.55;;;;;;;-146.27;100.00;82900.47;5034687;28;20031;-67
2023/05/09 10:37:49;;;;;;;21.00;13.63;;;;;;;-146.27;100.00;82890.44;5054104;28;20056;-67
2023/05/09 10:40:14;;;;;;;18.48;14.30;;;;;;;-146.27;100.00;82858.28;5053493;28;20106;-67
2023/05/09 10:42:43;;;;;;;20.80;14.15;;;;;;;-146.27;100.00;82870.34;5053091;28;20016;-66
2023/05/09 10:45:11;;;;;;;18.10;13.15;;;;;;;-146.27;100.00;82868.34;5073132;28;20448;-67
2023/05/09 10:47:38;;;;;;;21.63;15.27;;;;;;;-146.27;100.00;82876.38;5057886;28;20412;-68
2023/05/09 10:50:04;;;;;;;21.23;13.40;;;;;;;-146.27;100.00;82872.34;5064217;28;20028;-66
2023/05/09 10:52:33;;;;;;;17.73;12.65;;;;;;;-146.27;100.00;82902.50;5070502;28;20086;-66